createdAt,value
2018-06-29T00:02:15.900Z,12.75
2018-06-29T00:04:43.960Z,16.32
2018-06-29T00:07:12.021Z,13.75
2018-06-29T00:09:40.065Z,18.20
2018-06-29T00:12:08.127Z,15.53
2018-06-29T00:14:36.181Z,13.60
2018-06-29T00:17:04.243Z,14.85
2018-06-29T00:19:32.293Z,13.15
2018-06-29T00:22:00.438Z,12.03
2018-06-29T00:24:28.436Z,13.00
2018-06-29T00:26:56.507Z,8.38
2018-06-29T00:29:24.558Z,11.90
2018-06-29T00:31:52.621Z,12.20
2018-06-29T00:34:20.753Z,14.45
2018-06-29T00:36:48.821Z,13.90
2018-06-29T00:39:16.884Z,9.95
2018-06-29T00:41:44.952Z,13.32
2018-06-29T00:44:13.168Z,9.78
2018-06-29T00:46:41.065Z,8.53
2018-06-29T00:49:09.123Z,9.83
2018-06-29T00:51:37.189Z,11.40
2018-06-29T00:54:05.324Z,9.33
2018-06-29T00:56:33.432Z,12.98
2018-06-29T00:59:01.492Z,8.68
2018-06-29T01:01:29.545Z,7.75
2018-06-29T01:03:57.605Z,10.45
2018-06-29T01:06:25.695Z,6.97
2018-06-29T01:08:53.756Z,10.63
2018-06-29T01:11:21.812Z,9.35
2018-06-29T01:13:49.884Z,8.68
2018-06-29T01:16:18.537Z,7.30
2018-06-29T01:18:46.600Z,9.03
2018-06-29T01:21:14.641Z,7.92
2018-06-29T01:23:42.693Z,7.12
2018-06-29T01:26:10.755Z,7.55
2018-06-29T01:28:38.883Z,9.20
2018-06-29T01:31:06.941Z,4.80
2018-06-29T01:33:34.998Z,8.13
2018-06-29T01:36:03.025Z,9.93
2018-06-29T01:38:31.088Z,9.50
2018-06-29T01:40:59.128Z,9.90
2018-06-29T01:43:27.192Z,10.20
2018-06-29T01:45:55.264Z,10.90
2018-06-29T01:48:23.304Z,8.53
2018-06-29T01:50:51.337Z,7.72
2018-06-29T01:53:19.400Z,11.22
2018-06-29T01:55:47.436Z,10.70
2018-06-29T01:58:15.483Z,11.93
2018-06-29T02:00:43.619Z,13.93
2018-06-29T02:03:11.689Z,11.83
2018-06-29T02:05:39.740Z,13.20
2018-06-29T02:08:07.883Z,7.75
2018-06-29T02:10:35.831Z,5.78
2018-06-29T02:13:03.882Z,9.15
2018-06-29T02:15:31.932Z,5.70
2018-06-29T02:17:59.984Z,8.10
2018-06-29T02:20:28.016Z,9.88
2018-06-29T02:22:56.080Z,10.13
2018-06-29T02:25:24.124Z,9.55
2018-06-29T02:27:52.184Z,9.70
2018-06-29T02:30:20.210Z,8.00
2018-06-29T02:32:48.320Z,10.75
2018-06-29T02:35:16.360Z,11.05
2018-06-29T02:37:44.433Z,7.70
2018-06-29T02:40:12.456Z,9.30
2018-06-29T02:42:40.481Z,8.10
2018-06-29T02:45:08.527Z,9.73
2018-06-29T02:47:36.659Z,11.18
2018-06-29T02:50:04.712Z,10.65
2018-06-29T02:52:32.780Z,8.65
2018-06-29T02:55:00.836Z,6.70
2018-06-29T02:57:28.864Z,8.95
2018-06-29T02:59:56.919Z,11.57
2018-06-29T03:02:24.956Z,8.43
2018-06-29T03:04:53.008Z,8.93
2018-06-29T03:07:21.044Z,8.20
2018-06-29T03:09:49.116Z,6.65
2018-06-29T03:12:17.178Z,7.80
2018-06-29T03:14:45.251Z,8.08
2018-06-29T03:17:13.288Z,8.35
2018-06-29T03:19:41.345Z,8.98
2018-06-29T03:22:09.397Z,10.35
2018-06-29T03:24:37.443Z,7.70
2018-06-29T03:27:05.592Z,8.50
2018-06-29T03:29:33.639Z,6.70
2018-06-29T03:32:01.685Z,5.40
2018-06-29T03:34:29.724Z,7.80
2018-06-29T03:36:57.755Z,6.62
2018-06-29T03:39:25.790Z,7.85
2018-06-29T03:41:53.825Z,10.53
2018-06-29T03:44:21.872Z,9.10
2018-06-29T03:46:49.910Z,13.25
2018-06-29T03:49:17.961Z,11.43
2018-06-29T03:51:45.991Z,13.75
2018-06-29T03:54:14.053Z,8.30
2018-06-29T03:56:42.088Z,10.63
2018-06-29T03:59:10.152Z,9.50
2018-06-29T04:01:38.205Z,7.78
2018-06-29T04:04:06.427Z,6.90
2018-06-29T04:06:34.483Z,9.05
2018-06-29T04:09:02.548Z,8.45
2018-06-29T04:11:30.610Z,6.33
2018-06-29T04:13:58.648Z,8.48
2018-06-29T04:16:26.702Z,11.03
2018-06-29T04:18:54.738Z,7.28
2018-06-29T04:21:22.783Z,11.33
2018-06-29T04:23:50.823Z,8.05
2018-06-29T04:26:18.878Z,14.10
2018-06-29T04:28:46.912Z,10.28
2018-06-29T04:31:14.960Z,8.08
2018-06-29T04:33:43.015Z,7.60
2018-06-29T04:36:11.134Z,10.78
2018-06-29T04:38:39.178Z,8.50
2018-06-29T04:41:07.666Z,9.08
2018-06-29T04:43:35.760Z,8.75
2018-06-29T04:46:03.828Z,13.25
2018-06-29T04:48:31.911Z,19.75
2018-06-29T04:50:59.961Z,8.23
2018-06-29T04:53:28.006Z,7.12
2018-06-29T04:55:56.080Z,8.88
2018-06-29T04:58:24.158Z,9.48
2018-06-29T05:00:52.475Z,7.25
2018-06-29T05:03:20.505Z,6.62
2018-06-29T05:05:48.527Z,6.12
2018-06-29T05:08:16.589Z,5.47
2018-06-29T05:10:44.658Z,7.55
2018-06-29T05:13:12.703Z,7.10
2018-06-29T05:15:40.745Z,5.70
2018-06-29T05:18:09.047Z,8.30
2018-06-29T05:20:37.121Z,7.53
2018-06-29T05:23:05.504Z,9.40
2018-06-29T05:25:33.652Z,8.05
2018-06-29T05:28:01.755Z,7.25
2018-06-29T05:30:29.792Z,8.08
2018-06-29T05:32:57.852Z,7.53
2018-06-29T05:35:25.912Z,11.22
2018-06-29T05:37:54.002Z,7.58
2018-06-29T05:40:22.048Z,8.58
2018-06-29T05:42:50.107Z,7.90
2018-06-29T05:45:18.128Z,7.03
2018-06-29T05:47:46.259Z,7.67
2018-06-29T05:50:14.288Z,6.17
2018-06-29T05:52:42.332Z,4.72
2018-06-29T05:55:10.369Z,5.75
2018-06-29T05:57:38.425Z,6.92
2018-06-29T06:00:06.940Z,7.37
2018-06-29T06:02:35.041Z,8.98
2018-06-29T06:05:03.109Z,7.67
2018-06-29T06:07:31.163Z,9.18
2018-06-29T06:09:59.229Z,8.75
2018-06-29T06:12:27.279Z,6.60
2018-06-29T06:14:55.366Z,7.80
2018-06-29T06:17:23.403Z,7.75
2018-06-29T06:20:03.203Z,7.05
2018-06-29T06:22:31.292Z,11.85
2018-06-29T06:24:59.395Z,10.98
2018-06-29T06:27:27.689Z,8.28
2018-06-29T06:29:56.086Z,6.92
2018-06-29T06:32:24.161Z,15.18
2018-06-29T06:34:52.239Z,10.82
2018-06-29T06:37:20.590Z,9.73
2018-06-29T06:39:48.692Z,8.58
2018-06-29T06:42:16.764Z,15.28
2018-06-29T06:44:45.117Z,10.55
2018-06-29T06:47:13.211Z,8.15
2018-06-29T06:49:41.325Z,14.40
2018-06-29T06:52:09.388Z,11.30
2018-06-29T06:54:37.540Z,9.88
2018-06-29T06:57:05.748Z,10.00
2018-06-29T06:59:33.925Z,11.60
2018-06-29T07:02:01.945Z,13.20
2018-06-29T07:04:30.052Z,15.23
2018-06-29T07:06:58.116Z,9.88
2018-06-29T07:09:26.251Z,11.55
2018-06-29T07:11:54.320Z,8.00
2018-06-29T07:14:22.395Z,7.30
2018-06-29T07:16:50.462Z,7.47
2018-06-29T07:19:18.538Z,9.18
2018-06-29T07:21:46.603Z,9.95
2018-06-29T07:24:14.643Z,9.70
2018-06-29T07:26:42.709Z,16.45
2018-06-29T07:29:10.765Z,11.55
2018-06-29T07:31:38.931Z,13.65
2018-06-29T07:34:07.031Z,13.75
2018-06-29T07:36:35.139Z,15.48
2018-06-29T07:39:03.204Z,19.12
2018-06-29T07:41:31.269Z,18.40
2018-06-29T07:43:59.327Z,14.30
2018-06-29T07:46:27.396Z,22.85
2018-06-29T07:48:55.456Z,18.55
2018-06-29T07:51:23.518Z,15.35
2018-06-29T07:53:51.592Z,16.90
2018-06-29T07:56:19.815Z,25.97
2018-06-29T07:58:47.920Z,20.27
2018-06-29T08:01:15.927Z,18.87
2018-06-29T08:03:43.996Z,27.58
2018-06-29T08:06:12.067Z,22.27
2018-06-29T08:08:40.139Z,21.00
2018-06-29T08:11:08.248Z,21.93
2018-06-29T08:13:36.312Z,28.42
2018-06-29T08:16:04.365Z,15.98
2018-06-29T08:18:32.432Z,28.87
2018-06-29T08:21:00.480Z,25.68
2018-06-29T08:23:31.693Z,23.87
2018-06-29T08:26:31.035Z,33.18
2018-06-29T08:28:59.096Z,24.25
2018-06-29T08:31:27.164Z,35.23
2018-06-29T08:33:55.218Z,28.15
2018-06-29T08:36:23.264Z,27.58
2018-06-29T08:38:51.323Z,28.75
2018-06-29T08:41:19.408Z,24.80
2018-06-29T08:43:47.497Z,33.50
2018-06-29T08:46:15.554Z,27.73
2018-06-29T08:48:43.611Z,32.80
2018-06-29T08:51:11.668Z,36.05
2018-06-29T08:53:39.731Z,24.87
2018-06-29T08:56:07.866Z,19.40
2018-06-29T08:58:35.935Z,29.65
2018-06-29T09:01:03.987Z,26.00
2018-06-29T09:03:32.060Z,24.45
2018-06-29T09:06:00.096Z,26.20
2018-06-29T09:08:28.157Z,29.32
2018-06-29T09:10:56.202Z,27.42
2018-06-29T09:13:24.259Z,36.38
2018-06-29T09:15:52.356Z,34.10
2018-06-29T09:18:20.412Z,43.48
2018-06-29T09:20:48.453Z,50.12
2018-06-29T09:23:16.512Z,36.73
2018-06-29T09:25:44.550Z,37.50
2018-06-29T09:28:12.596Z,45.25
2018-06-29T09:30:40.645Z,45.43
2018-06-29T09:33:08.706Z,34.13
2018-06-29T09:35:36.751Z,40.33
2018-06-29T09:38:04.829Z,49.53
2018-06-29T09:40:32.885Z,40.03
2018-06-29T09:43:00.935Z,45.28
2018-06-29T09:45:28.995Z,58.33
2018-06-29T09:47:57.149Z,70.70
2018-06-29T09:50:25.108Z,45.58
2018-06-29T09:52:53.168Z,68.87
2018-06-29T09:55:21.220Z,40.33
2018-06-29T09:57:49.276Z,51.53
2018-06-29T10:00:21.504Z,45.85
2018-06-29T10:02:49.564Z,62.70
2018-06-29T10:05:17.608Z,55.95
2018-06-29T10:07:45.668Z,50.88
2018-06-29T10:10:13.717Z,65.15
2018-06-29T10:12:41.852Z,66.37
2018-06-29T10:15:09.900Z,35.50
2018-06-29T10:17:37.945Z,42.38
2018-06-29T10:20:06.080Z,44.58
2018-06-29T10:22:34.125Z,47.75
2018-06-29T10:25:02.162Z,49.10
2018-06-29T10:27:30.236Z,54.95
2018-06-29T10:29:58.282Z,59.73
2018-06-29T10:32:26.336Z,61.90
2018-06-29T10:34:54.384Z,68.62
2018-06-29T10:37:22.445Z,55.92
2018-06-29T10:39:50.512Z,54.75
2018-06-29T10:42:18.560Z,56.73
2018-06-29T10:44:46.724Z,62.48
2018-06-29T10:47:14.721Z,80.03
2018-06-29T10:49:42.816Z,72.32
2018-06-29T10:52:10.849Z,56.95
2018-06-29T10:54:38.913Z,74.37
2018-06-29T10:57:07.292Z,56.92
2018-06-29T10:59:35.419Z,59.67
2018-06-29T11:02:03.472Z,54.03
2018-06-29T11:04:31.569Z,57.27
2018-06-29T11:06:59.630Z,57.90
2018-06-29T11:09:27.684Z,80.50
2018-06-29T11:11:55.728Z,65.60
2018-06-29T11:14:23.784Z,75.80
2018-06-29T11:16:51.865Z,77.73
2018-06-29T11:19:19.923Z,56.90
2018-06-29T11:21:47.963Z,76.20
2018-06-29T11:24:16.024Z,98.77
2018-06-29T11:26:44.072Z,83.73
2018-06-29T11:29:12.140Z,124.83
2018-06-29T11:31:40.172Z,83.37
2018-06-29T11:34:08.246Z,83.03
2018-06-29T11:36:36.332Z,112.57
2018-06-29T11:39:06.900Z,82.13
2018-06-29T11:41:34.948Z,88.60
2018-06-29T11:44:03.041Z,77.10
2018-06-29T11:46:31.065Z,93.03
2018-06-29T11:48:59.124Z,95.90
2018-06-29T11:51:27.247Z,130.17
2018-06-29T11:53:55.249Z,78.43
2018-06-29T11:56:23.464Z,123.83
2018-06-29T11:58:51.536Z,81.17
2018-06-29T12:01:19.588Z,94.10
2018-06-29T12:03:47.628Z,91.53
2018-06-29T12:06:15.684Z,73.83
2018-06-29T12:08:43.860Z,85.60
2018-06-29T12:11:11.928Z,114.03
2018-06-29T12:13:40.398Z,78.23
2018-06-29T12:16:08.884Z,82.30
2018-06-29T12:18:37.243Z,112.10
2018-06-29T12:21:05.316Z,74.53
2018-06-29T12:23:33.365Z,135.63
2018-06-29T12:26:01.433Z,91.83
2018-06-29T12:28:29.477Z,71.70
2018-06-29T12:30:57.542Z,84.17
2018-06-29T12:33:25.593Z,111.00
2018-06-29T12:35:53.648Z,86.43
2018-06-29T12:38:21.723Z,83.07
2018-06-29T12:40:49.768Z,69.53
2018-06-29T12:43:17.824Z,73.00
2018-06-29T12:45:45.976Z,91.60
2018-06-29T12:48:14.051Z,65.57
2018-06-29T12:50:42.107Z,86.80
2018-06-29T12:53:10.152Z,109.37
2018-06-29T12:55:38.215Z,118.03
2018-06-29T12:58:06.305Z,115.30
2018-06-29T13:00:34.356Z,72.37
2018-06-29T13:03:02.411Z,103.13
2018-06-29T13:05:30.600Z,100.27
2018-06-29T13:07:58.566Z,72.40
2018-06-29T13:10:26.622Z,93.77
2018-06-29T13:12:55.102Z,96.10
2018-06-29T13:15:23.170Z,110.37
2018-06-29T13:17:51.242Z,77.07
2018-06-29T13:20:19.307Z,80.50
2018-06-29T13:22:47.347Z,77.73
2018-06-29T13:25:15.430Z,102.20
2018-06-29T13:27:43.468Z,90.70
2018-06-29T13:30:11.515Z,80.20
2018-06-29T13:32:39.574Z,74.03
2018-06-29T13:35:07.651Z,56.07
2018-06-29T13:37:35.683Z,82.63
2018-06-29T13:40:03.760Z,86.67
2018-06-29T13:42:31.801Z,64.23
2018-06-29T13:44:59.859Z,59.87
2018-06-29T13:47:27.900Z,67.40
2018-06-29T13:49:55.931Z,61.77
2018-06-29T13:52:23.988Z,69.80
2018-06-29T13:54:52.088Z,58.42
2018-06-29T13:57:20.119Z,37.55
2018-06-29T13:59:48.172Z,39.92
2018-06-29T14:02:16.247Z,58.63
2018-06-29T14:04:44.352Z,52.95
2018-06-29T14:07:12.421Z,53.05
2018-06-29T14:09:40.468Z,29.40
2018-06-29T14:12:08.531Z,49.30
2018-06-29T14:14:36.576Z,49.25
2018-06-29T14:17:04.672Z,49.80
2018-06-29T14:19:32.724Z,75.40
2018-06-29T14:22:00.787Z,48.48
2018-06-29T14:24:28.833Z,65.95
2018-06-29T14:26:56.880Z,43.20
2018-06-29T14:29:24.936Z,68.70
2018-06-29T14:31:52.988Z,74.07
2018-06-29T14:34:21.060Z,56.33
2018-06-29T14:36:49.118Z,48.42
2018-06-29T14:39:17.160Z,59.90
2018-06-29T14:41:45.265Z,63.37
2018-06-29T14:44:13.388Z,62.97
2018-06-29T14:46:41.472Z,59.50
2018-06-29T14:49:09.834Z,56.53
2018-06-29T14:51:37.934Z,58.87
2018-06-29T14:54:06.002Z,47.38
2018-06-29T14:56:34.092Z,48.17
2018-06-29T14:59:02.136Z,42.70
2018-06-29T15:01:30.219Z,36.83
2018-06-29T15:03:58.304Z,36.55
2018-06-29T15:06:26.364Z,39.65
2018-06-29T15:08:54.412Z,41.83
2018-06-29T15:11:22.533Z,50.10
2018-06-29T15:13:50.585Z,69.90
2018-06-29T15:16:18.660Z,39.85
2018-06-29T15:18:47.230Z,39.83
2018-06-29T15:21:15.309Z,45.03
2018-06-29T15:23:43.355Z,52.10
2018-06-29T15:26:11.436Z,44.30
2018-06-29T15:28:39.480Z,62.13
2018-06-29T15:31:07.612Z,42.08
2018-06-29T15:33:35.608Z,34.55
2018-06-29T15:36:03.670Z,54.08
2018-06-29T15:38:31.751Z,38.15
2018-06-29T15:40:59.812Z,46.05
2018-06-29T15:43:27.896Z,45.63
2018-06-29T15:45:55.951Z,30.43
2018-06-29T15:48:24.034Z,47.55
2018-06-29T15:50:52.072Z,34.08
2018-06-29T15:53:20.281Z,35.92
2018-06-29T15:55:48.329Z,37.03
2018-06-29T15:58:16.424Z,43.68
2018-06-29T16:00:44.474Z,41.65
2018-06-29T16:03:12.543Z,30.60
2018-06-29T16:05:40.648Z,36.13
2018-06-29T16:08:08.703Z,52.50
2018-06-29T16:10:36.761Z,30.62
2018-06-29T16:13:04.824Z,30.95
2018-06-29T16:15:32.904Z,44.50
2018-06-29T16:18:00.993Z,39.73
2018-06-29T16:20:29.036Z,35.70
2018-06-29T16:22:57.120Z,43.30
2018-06-29T16:25:25.173Z,40.95
2018-06-29T16:27:53.215Z,39.53
2018-06-29T16:30:21.319Z,30.37
2018-06-29T16:32:49.380Z,30.97
2018-06-29T16:35:17.476Z,29.20
2018-06-29T16:37:45.577Z,29.50
2018-06-29T16:40:13.660Z,28.95
2018-06-29T16:42:41.765Z,23.55
2018-06-29T16:45:09.809Z,24.57
2018-06-29T16:47:37.861Z,20.57
2018-06-29T16:50:06.476Z,23.92
2018-06-29T16:52:34.568Z,23.47
2018-06-29T16:55:02.650Z,30.08
2018-06-29T16:57:30.713Z,18.45
2018-06-29T16:59:58.762Z,19.32
2018-06-29T17:02:26.836Z,22.48
2018-06-29T17:04:54.899Z,26.12
2018-06-29T17:07:22.957Z,26.17
2018-06-29T17:09:50.997Z,24.00
2018-06-29T17:12:19.063Z,24.85
2018-06-29T17:14:47.176Z,14.35
2018-06-29T17:17:15.235Z,9.55
2018-06-29T17:19:43.288Z,20.05
2018-06-29T17:22:11.339Z,22.02
2018-06-29T17:24:39.392Z,25.12
2018-06-29T17:27:07.448Z,16.95
2018-06-29T17:29:35.512Z,13.83
2018-06-29T17:32:03.567Z,19.57
2018-06-29T17:34:31.620Z,20.02
2018-06-29T17:36:59.669Z,19.50
2018-06-29T17:39:27.723Z,13.75
2018-06-29T17:41:55.760Z,24.18
2018-06-29T17:44:23.804Z,15.90
2018-06-29T17:46:51.865Z,19.67
2018-06-29T17:49:19.911Z,32.70
2018-06-29T17:51:48.000Z,23.30
2018-06-29T17:54:16.066Z,30.88
2018-06-29T17:56:44.116Z,24.65
2018-06-29T17:59:12.167Z,28.27
2018-06-29T18:01:40.305Z,26.75
2018-06-29T18:04:08.360Z,19.30
2018-06-29T18:06:36.404Z,23.87
2018-06-29T18:09:07.002Z,27.02
2018-06-29T18:11:35.054Z,26.68
2018-06-29T18:14:03.123Z,16.48
2018-06-29T18:16:31.166Z,19.70
2018-06-29T18:19:01.314Z,16.85
2018-06-29T18:21:29.308Z,19.40
2018-06-29T18:24:00.550Z,16.85
2018-06-29T18:26:28.601Z,15.38
2018-06-29T18:28:56.662Z,11.00
2018-06-29T18:31:24.775Z,15.35
2018-06-29T18:33:52.844Z,10.80
2018-06-29T18:36:20.888Z,15.70
2018-06-29T18:38:48.941Z,16.45
2018-06-29T18:41:16.986Z,20.40
2018-06-29T18:43:45.025Z,12.58
2018-06-29T18:46:13.080Z,11.35
2018-06-29T18:48:41.142Z,10.43
2018-06-29T18:51:09.201Z,11.70
2018-06-29T18:53:37.278Z,13.60
2018-06-29T18:56:05.334Z,10.15
2018-06-29T18:58:33.409Z,14.35
2018-06-29T19:01:01.436Z,16.82
2018-06-29T19:03:29.492Z,12.95
2018-06-29T19:05:57.539Z,12.23
2018-06-29T19:08:25.575Z,8.73
2018-06-29T19:10:53.651Z,10.82
2018-06-29T19:13:21.688Z,11.80
2018-06-29T19:15:49.749Z,14.58
2018-06-29T19:18:17.806Z,13.90
2018-06-29T19:20:45.857Z,16.60
2018-06-29T19:23:13.897Z,12.88
2018-06-29T19:25:41.948Z,14.07
2018-06-29T19:28:10.006Z,16.10
2018-06-29T19:30:38.107Z,13.55
2018-06-29T19:33:06.708Z,12.85
2018-06-29T19:35:34.785Z,20.75
2018-06-29T19:38:02.843Z,17.12
2018-06-29T19:40:30.906Z,16.62
2018-06-29T19:42:58.987Z,12.80
2018-06-29T19:45:27.153Z,14.00
2018-06-29T19:47:55.206Z,14.90
2018-06-29T19:50:23.267Z,18.80
2018-06-29T19:52:51.360Z,16.10
2018-06-29T19:55:19.432Z,10.80
2018-06-29T19:57:47.492Z,11.53
2018-06-29T20:00:15.556Z,13.53
2018-06-29T20:02:43.604Z,16.70
2018-06-29T20:05:11.716Z,16.20
2018-06-29T20:07:39.739Z,10.43
2018-06-29T20:10:08.448Z,6.33
2018-06-29T20:12:36.494Z,11.70
2018-06-29T20:15:05.752Z,11.73
2018-06-29T20:17:33.817Z,12.05
2018-06-29T20:20:01.900Z,14.60
2018-06-29T20:22:29.957Z,13.53
2018-06-29T20:24:58.008Z,11.25
2018-06-29T20:27:26.052Z,11.63
2018-06-29T20:29:54.112Z,12.93
2018-06-29T20:32:22.181Z,12.85
2018-06-29T20:34:50.248Z,12.90
2018-06-29T20:37:18.304Z,13.78
2018-06-29T20:39:46.390Z,13.70
2018-06-29T20:42:15.336Z,10.08
2018-06-29T20:44:43.410Z,17.23
2018-06-29T20:47:11.513Z,12.55
2018-06-29T20:49:39.596Z,11.63
2018-06-29T20:52:07.689Z,10.03
2018-06-29T20:54:35.727Z,9.85
2018-06-29T20:57:03.844Z,11.30
2018-06-29T20:59:31.894Z,11.48
2018-06-29T21:01:59.969Z,11.00
2018-06-29T21:04:28.013Z,14.15
2018-06-29T21:06:56.092Z,9.43
2018-06-29T21:09:24.136Z,9.08
2018-06-29T21:11:52.244Z,8.55
2018-06-29T21:14:20.292Z,8.70
2018-06-29T21:16:48.356Z,6.10
2018-06-29T21:19:16.411Z,8.28
2018-06-29T21:21:44.483Z,9.33
2018-06-29T21:24:12.523Z,10.38
2018-06-29T21:26:40.588Z,8.73
2018-06-29T21:29:08.637Z,8.85
2018-06-29T21:31:36.706Z,9.90
2018-06-29T21:34:04.747Z,9.13
2018-06-29T21:36:32.792Z,8.90
2018-06-29T21:39:00.839Z,15.58
2018-06-29T21:41:29.095Z,10.15
2018-06-29T21:43:57.133Z,12.68
2018-06-29T21:46:25.187Z,10.03
2018-06-29T21:48:53.229Z,10.65
2018-06-29T21:51:21.275Z,9.23
2018-06-29T21:53:49.319Z,11.90
2018-06-29T21:56:17.380Z,15.43
2018-06-29T21:58:45.416Z,9.15
2018-06-29T22:01:13.559Z,11.38
2018-06-29T22:03:41.672Z,11.60
2018-06-29T22:06:09.725Z,10.88
2018-06-29T22:08:37.756Z,7.60
2018-06-29T22:11:05.800Z,7.00
2018-06-29T22:13:33.836Z,5.72
2018-06-29T22:16:01.875Z,4.30
2018-06-29T22:18:29.960Z,7.37
2018-06-29T22:20:58.004Z,7.50
2018-06-29T22:23:26.194Z,7.60
2018-06-29T22:25:54.236Z,8.80
2018-06-29T22:28:22.263Z,5.50
2018-06-29T22:30:50.306Z,9.73
2018-06-29T22:33:18.350Z,5.97
2018-06-29T22:35:46.383Z,6.65
2018-06-29T22:38:14.407Z,7.03
2018-06-29T22:40:42.436Z,4.40
2018-06-29T22:43:10.480Z,4.75
2018-06-29T22:45:38.508Z,4.55
2018-06-29T22:48:06.552Z,5.78
2018-06-29T22:50:34.588Z,8.63
2018-06-29T22:53:02.634Z,6.00
2018-06-29T22:55:30.684Z,5.37
2018-06-29T22:57:58.724Z,7.50
2018-06-29T23:00:26.756Z,5.75
2018-06-29T23:02:58.572Z,6.50
2018-06-29T23:05:26.625Z,4.60
2018-06-29T23:07:54.685Z,6.10
2018-06-29T23:10:22.708Z,6.92
2018-06-29T23:12:50.746Z,7.10
2018-06-29T23:15:18.780Z,2.52
2018-06-29T23:17:46.820Z,3.65
2018-06-29T23:20:14.853Z,4.97
2018-06-29T23:22:42.895Z,5.28
2018-06-29T23:25:10.949Z,6.47
2018-06-29T23:27:39.068Z,6.08
2018-06-29T23:30:07.110Z,7.22
2018-06-29T23:32:35.165Z,7.87
2018-06-29T23:35:03.203Z,6.12
2018-06-29T23:37:31.263Z,8.45
2018-06-29T23:39:59.320Z,6.35
2018-06-29T23:42:27.385Z,5.83
2018-06-29T23:44:55.412Z,4.78
2018-06-29T23:47:23.568Z,6.25
2018-06-29T23:49:51.615Z,5.92
2018-06-29T23:52:19.674Z,4.55
2018-06-29T23:54:47.707Z,3.98
2018-06-29T23:57:15.756Z,3.00
2018-06-29T23:59:43.780Z,8.10
